Startpagina
METAR-TAF:

METAR-TAF

Vliegvelden :

Quibdó, Colombia

breedte: 05-43N, lengte: 076-37W, hoogte: 53 m

Actueel weer

Dit bericht is 6 uur en het 39 minuten geleden gemaakt, om 02:00 UTC
Weinig wind
Temperatuur 26°C
Vochtigheid 89%
Druk 1012 hPa
Zicht 10 km of meer
Gebroken wolken op 2000 ft

METAR: SKUI 210200Z 00000KT 9999 BKN020 26/24 A2987

Tijdstip: 03:39 (08:39 UTC)


TAF: ontbreekt

Waarnemingen en weersverwachtingen van meer dan 4000 vliegvelden (METAR en TAF).

De beschikbare stations zijn de gele en rode punten op de kaart.

Ga met uw muis naar het station om de naam te zien.

Klik dan om waarnemingen en weersverwachtingen te zien.

kaart wijzigen: klik op de groene knoppen met een zwart kruis om in te zoomen, op de groene knop met een streepje om uit te zoomen of op de groene pijlen voor aangrenzende kaarten.


METAR-TAF: